Time;durP1;ratioP1;P1;durP2;ratioP2;P2;SDS_P1;SDS_P2;PMS_P1;PMS_P2;Temp;Humidity;BMP_temperature;BMP_pressure;BME280_temperature;BME280_humidity;BME280_pressure;Samples;Min_cycle;Max_cycle;Signal;HPM_P1;HPM_P2
2022/01/03 00:00:40;;;;;;;6.58;4.30;;;;;;;-3.55;62.30;101025.33;1762824;81;20920;-75
2022/01/03 00:03:10;;;;;;;7.35;4.45;;;;;;;-3.52;62.38;101024.92;1761995;81;21134;-75
2022/01/03 00:05:37;;;;;;;4.83;3.40;;;;;;;-3.54;62.40;101023.62;1761930;81;21006;-77
2022/01/03 00:08:05;;;;;;;2.90;2.60;;;;;;;-3.57;62.50;101022.34;1761979;81;20991;-75
2022/01/03 00:10:34;;;;;;;5.85;3.30;;;;;;;-3.57;62.57;101008.23;1761984;81;21007;-74
2022/01/03 00:13:05;;;;;;;5.85;2.95;;;;;;;-3.57;62.65;101010.37;1761670;80;20918;-74
2022/01/03 00:15:33;;;;;;;4.00;2.87;;;;;;;-3.56;62.61;101009.94;1761967;80;20916;-75
2022/01/03 00:18:00;;;;;;;7.00;3.30;;;;;;;-3.57;62.70;101015.50;1761969;80;20876;-76
2022/01/03 00:20:29;;;;;;;3.02;2.50;;;;;;;-3.57;62.70;101001.40;1762070;81;20943;-75
2022/01/03 00:22:59;;;;;;;4.30;3.00;;;;;;;-3.55;62.79;100997.56;1762206;81;21393;-76
2022/01/03 00:25:26;;;;;;;3.87;2.72;;;;;;;-3.52;62.79;101002.70;1762638;81;20924;-76
2022/01/03 00:28:22;;;;;;;2.95;2.52;;;;;;;-3.49;62.70;100997.59;1762260;81;22167;-76
2022/01/03 00:30:56;;;;;;;3.12;2.00;;;;;;;-3.46;62.81;100986.06;1762173;81;21462;-74
2022/01/03 00:33:24;;;;;;;3.47;2.40;;;;;;;-3.41;62.60;100985.64;1779436;78;20911;-74
2022/01/03 00:35:59;;;;;;;4.33;2.40;;;;;;;-3.40;62.45;100986.09;1795527;79;20977;-76
2022/01/03 00:38:29;;;;;;;3.90;2.35;;;;;;;-3.40;62.46;100984.81;1795936;78;20880;-75
2022/01/03 00:40:55;;;;;;;3.15;2.50;;;;;;;-3.35;62.50;100977.97;1795565;78;21178;-75
2022/01/03 00:43:22;;;;;;;3.75;2.35;;;;;;;-3.30;62.34;100961.31;1795533;78;20970;-75
2022/01/03 00:45:54;;;;;;;3.35;2.40;;;;;;;-3.27;62.20;100947.64;1768780;80;20923;-75
2022/01/03 00:48:20;;;;;;;2.42;1.80;;;;;;;-3.22;62.25;100940.84;1795886;80;20939;-76
2022/01/03 00:50:48;;;;;;;2.62;2.12;;;;;;;-3.18;62.13;100936.99;1795684;80;20892;-74
2022/01/03 00:53:15;;;;;;;3.02;2.52;;;;;;;-3.16;62.03;100930.16;1796033;80;21752;-74
2022/01/03 00:56:07;;;;;;;3.05;2.55;;;;;;;-3.15;62.09;100916.47;1795784;80;21465;-74
2022/01/03 00:58:37;;;;;;;5.42;2.15;;;;;;;-3.15;62.09;100913.91;1795881;79;20888;-74
2022/01/03 01:01:05;;;;;;;4.28;3.00;;;;;;;-3.15;62.15;100916.47;1795818;80;21441;-76
2022/01/03 01:03:38;;;;;;;2.85;2.27;;;;;;;-3.14;62.18;100910.47;1796026;80;20955;-75
2022/01/03 01:06:07;;;;;;;3.47;3.17;;;;;;;-3.11;62.32;100912.20;1795810;80;21448;-75
2022/01/03 01:08:36;;;;;;;4.42;2.42;;;;;;;-3.07;62.58;100901.50;1795956;78;21481;-76
2022/01/03 01:11:07;;;;;;;4.95;2.25;;;;;;;-3.09;62.90;100897.67;1795687;78;21563;-76
2022/01/03 01:13:36;;;;;;;3.12;1.98;;;;;;;-3.09;63.05;100889.09;1795899;79;21417;-76
2022/01/03 01:16:06;;;;;;;2.55;1.95;;;;;;;-3.13;63.19;100886.55;1795685;78;21057;-75
2022/01/03 01:18:36;;;;;;;2.65;2.08;;;;;;;-3.16;63.36;100883.99;1795957;79;21110;-74
2022/01/03 01:21:05;;;;;;;2.65;2.30;;;;;;;-3.19;63.52;100886.53;1795585;78;21499;-75
2022/01/03 01:23:33;;;;;;;4.75;2.65;;;;;;;-3.23;63.91;100881.41;1795734;78;20907;-74
2022/01/03 01:28:47;;;;;;;3.90;2.72;;;;;;;-3.28;65.02;100862.17;1796008;79;20955;-75
2022/01/03 01:31:19;;;;;;;6.33;3.47;;;;;;;-3.30;65.54;100865.16;1795762;80;21364;-76
2022/01/03 01:33:47;;;;;;;7.42;3.58;;;;;;;-3.31;66.21;100858.34;1777476;80;20936;-75
2022/01/03 01:36:14;;;;;;;7.37;4.12;;;;;;;-3.30;66.68;100854.91;1762157;81;20967;-74
2022/01/03 01:38:41;;;;;;;5.85;3.25;;;;;;;-3.31;67.32;100852.33;1762167;80;20923;-73
2022/01/03 01:41:09;;;;;;;5.17;4.08;;;;;;;-3.32;67.70;100839.09;1762131;81;21405;-74
2022/01/03 01:43:43;;;;;;;6.53;3.90;;;;;;;-3.33;68.01;100825.42;1761650;80;22041;-75
2022/01/03 01:46:13;;;;;;;;;;;;;;;-3.31;68.30;100825.00;1764711;81;21000;-74
2022/01/03 01:48:44;;;;;;;7.40;4.35;;;;;;;-3.30;68.55;100823.28;1738768;82;20090;-74
2022/01/03 01:51:14;;;;;;;5.50;3.67;;;;;;;-3.31;68.79;100826.69;1746316;81;21078;-73
2022/01/03 01:53:50;;;;;;;8.53;4.20;;;;;;;-3.32;69.02;100819.86;1762799;81;20904;-74
2022/01/03 01:56:23;;;;;;;8.83;4.45;;;;;;;-3.31;69.14;100807.05;1762398;81;21096;-75
2022/01/03 01:59:14;;;;;;;10.32;5.35;;;;;;;-3.29;69.30;100802.78;1762239;81;20896;-75
2022/01/03 02:02:02;;;;;;;6.83;4.45;;;;;;;-3.28;69.50;100789.52;1762118;81;21398;-73
2022/01/03 02:04:50;;;;;;;9.75;5.85;;;;;;;-3.25;69.60;100784.38;1762190;80;20939;-75
2022/01/03 02:07:45;;;;;;;10.93;5.95;;;;;;;-3.22;69.69;100779.27;1761807;80;21374;-74
2022/01/03 02:10:14;;;;;;;11.75;6.53;;;;;;;-3.21;69.80;100770.27;1761232;81;21165;-75
2022/01/03 02:12:45;;;;;;;11.22;6.22;;;;;;;-3.22;70.02;100754.91;1762197;81;20888;-75
2022/01/03 02:15:15;;;;;;;12.45;5.42;;;;;;;-3.23;70.18;100754.47;1762511;80;20869;-75
2022/01/03 02:17:47;;;;;;;8.75;5.22;;;;;;;-3.23;70.22;100750.19;1744965;81;20964;-74
2022/01/03 02:20:23;;;;;;;12.95;6.37;;;;;;;-3.20;70.39;100742.91;1762134;81;20940;-75
2022/01/03 02:22:53;;;;;;;13.90;6.22;;;;;;;-3.17;70.59;100739.92;1762094;81;20829;-75
2022/01/03 02:25:23;;;;;;;10.05;4.50;;;;;;;-3.14;70.80;100739.91;1763037;80;20885;-74
2022/01/03 02:27:51;;;;;;;11.43;5.60;;;;;;;-3.12;71.00;100729.66;1762176;81;20890;-74
2022/01/03 02:30:22;;;;;;;9.40;5.15;;;;;;;-3.12;71.23;100725.37;1762095;80;21066;-73
2022/01/03 02:32:49;;;;;;;9.68;5.60;;;;;;;-3.12;71.46;100716.39;1762208;80;21342;-76
2022/01/03 02:35:16;;;;;;;12.47;5.00;;;;;;;-3.10;71.74;100717.69;1750549;82;21177;-73
2022/01/03 02:37:46;;;;;;;10.28;5.95;;;;;;;-3.08;71.97;100699.73;1750572;82;20960;-75
2022/01/03 02:40:14;;;;;;;11.73;6.97;;;;;;;-3.05;72.29;100697.14;1750906;82;20940;-75
2022/01/03 02:42:41;;;;;;;7.25;5.28;;;;;;;-3.03;72.48;100687.73;1750507;82;21371;-72
2022/01/03 02:45:15;;;;;;;7.28;4.33;;;;;;;-3.03;72.76;100684.73;1735719;82;20960;-74
2022/01/03 02:47:46;;;;;;;8.95;4.55;;;;;;;-3.01;72.73;100680.89;1735698;82;21218;-75
2022/01/03 02:50:14;;;;;;;4.42;3.75;;;;;;;-3.00;72.83;100678.33;1750495;82;21386;-76
2022/01/03 02:52:41;;;;;;;7.25;4.85;;;;;;;-2.99;73.12;100669.77;1750526;82;20905;-74
2022/01/03 02:55:09;;;;;;;9.13;5.03;;;;;;;-3.00;73.41;100660.37;1750591;82;20979;-75
2022/01/03 02:57:41;;;;;;;9.90;5.42;;;;;;;-3.01;73.63;100645.83;1750688;82;21477;-75
2022/01/03 03:00:16;;;;;;;8.08;5.05;;;;;;;-3.01;73.90;100621.45;1750770;82;21815;-75
2022/01/03 03:02:43;;;;;;;7.75;4.62;;;;;;;-2.98;74.16;100605.19;1750936;82;21549;-75
2022/01/03 03:05:10;;;;;;;9.38;5.30;;;;;;;-2.98;74.68;100599.66;1750551;82;21035;-75
2022/01/03 03:07:38;;;;;;;8.15;5.33;;;;;;;-2.99;74.91;100594.08;1750985;82;20952;-74
2022/01/03 03:10:11;;;;;;;11.90;6.67;;;;;;;-2.99;75.42;100579.13;1751253;82;21046;-75
2022/01/03 03:12:38;;;;;;;9.40;5.87;;;;;;;-2.99;75.60;100565.02;1753026;81;21134;-75
2022/01/03 03:15:06;;;;;;;8.93;4.60;;;;;;;-2.96;75.76;100561.14;1753078;82;20964;-75
2022/01/03 03:17:33;;;;;;;8.05;5.08;;;;;;;-2.93;76.10;100557.30;1753706;77;21145;-75
2022/01/03 03:20:07;;;;;;;8.08;5.92;;;;;;;-2.91;76.16;100545.31;1754020;77;20972;-74
2022/01/03 03:22:34;;;;;;;7.25;5.37;;;;;;;-2.85;76.29;100545.25;1754387;82;21015;-75
2022/01/03 03:25:09;;;;;;;9.60;5.67;;;;;;;-2.79;76.34;100531.55;1753226;82;21092;-74
2022/01/03 03:27:42;;;;;;;;;;;;;;;-2.74;76.49;100523.38;1755164;81;20928;-75
2022/01/03 03:30:08;;;;;;;6.80;4.47;;;;;;;-2.68;76.55;100523.78;1752734;81;20097;-73
2022/01/03 03:32:36;;;;;;;11.73;4.53;;;;;;;-2.66;76.38;100507.50;1753097;77;20948;-74
2022/01/03 03:35:04;;;;;;;8.60;5.12;;;;;;;-2.63;76.28;100510.03;1738626;81;20912;-75
2022/01/03 03:37:30;;;;;;;9.65;4.72;;;;;;;-2.61;76.18;100519.02;1758210;81;21108;-75
2022/01/03 03:39:58;;;;;;;7.78;4.42;;;;;;;-2.58;76.11;100501.88;1758087;81;20897;-76
2022/01/03 03:42:26;;;;;;;8.93;5.58;;;;;;;-2.54;75.95;100491.98;1759209;80;20967;-76
2022/01/03 03:44:54;;;;;;;5.90;4.72;;;;;;;-2.50;75.89;100486.41;1759793;78;20951;-75
2022/01/03 03:47:21;;;;;;;9.05;5.67;;;;;;;-2.47;75.77;100486.36;1760793;80;20881;-75
2022/01/03 03:49:48;;;;;;;7.55;4.78;;;;;;;-2.42;75.84;100469.62;1760031;80;21030;-76
2022/01/03 03:52:15;;;;;;;6.55;4.40;;;;;;;-2.38;75.90;100459.75;1759452;80;20956;-75
2022/01/03 03:54:42;;;;;;;8.68;5.12;;;;;;;-2.38;76.04;100461.91;1757746;81;21410;-75
2022/01/03 03:57:09;;;;;;;11.25;5.92;;;;;;;-2.37;76.19;100449.92;1757480;81;20893;-75
2022/01/03 03:59:37;;;;;;;9.10;5.25;;;;;;;-2.36;76.34;100436.20;1757428;80;20928;-74
2022/01/03 04:02:04;;;;;;;5.40;4.45;;;;;;;-2.35;76.55;100433.63;1757386;81;21139;-76
2022/01/03 04:04:31;;;;;;;6.85;4.53;;;;;;;-2.33;76.55;100431.05;1757150;81;20980;-76
2022/01/03 04:06:59;;;;;;;6.12;4.10;;;;;;;-2.32;76.55;100422.03;1757343;81;20928;-76
2022/01/03 04:09:26;;;;;;;6.30;3.50;;;;;;;-2.29;76.66;100414.72;1757233;81;21413;-74
2022/01/03 04:11:57;;;;;;;6.17;4.35;;;;;;;-2.27;76.63;100407.01;1757696;81;20959;-74
2022/01/03 04:14:23;;;;;;;6.22;3.37;;;;;;;-2.26;76.70;100407.00;1757407;81;21574;-75
2022/01/03 04:16:52;;;;;;;4.85;3.83;;;;;;;-2.24;76.80;100401.42;1757211;80;20881;-75
2022/01/03 04:19:19;;;;;;;6.17;4.08;;;;;;;-2.23;76.74;100394.11;1757356;80;21370;-75
2022/01/03 04:21:46;;;;;;;6.08;4.85;;;;;;;-2.21;76.79;100387.24;1757403;81;20964;-75
2022/01/03 04:24:13;;;;;;;6.20;4.22;;;;;;;-2.20;76.98;100377.41;1757417;80;20885;-75
2022/01/03 04:26:40;;;;;;;4.45;3.25;;;;;;;-2.18;77.08;100385.94;1757256;80;21127;-75
2022/01/03 04:29:07;;;;;;;5.65;3.15;;;;;;;-2.17;77.14;100369.65;1757537;81;21434;-74
2022/01/03 04:31:35;;;;;;;4.35;3.72;;;;;;;-2.15;77.28;100366.63;1757332;80;20991;-75
2022/01/03 04:34:02;;;;;;;4.72;3.87;;;;;;;-2.12;77.32;100363.17;1757313;81;21026;-74
2022/01/03 04:36:29;;;;;;;5.80;4.03;;;;;;;-2.10;77.29;100340.88;1757222;81;20877;-75
2022/01/03 04:38:56;;;;;;;5.25;4.33;;;;;;;-2.08;77.31;100336.58;1757506;80;22080;-74
2022/01/03 04:41:24;;;;;;;5.87;3.50;;;;;;;-2.07;77.38;100334.41;1757053;81;20968;-75
2022/01/03 04:43:51;;;;;;;4.08;3.05;;;;;;;-2.09;77.41;100337.43;1757353;81;20928;-74
2022/01/03 04:48:53;;;;;;;6.03;4.20;;;;;;;-2.01;77.36;100278.26;1798317;79;22653;-75
2022/01/03 04:51:20;;;;;;;4.70;3.83;;;;;;;-2.03;77.42;100257.72;1695923;83;21518;-74
2022/01/03 04:53:48;;;;;;;5.00;3.92;;;;;;;-2.00;77.32;100232.41;1695793;83;21168;-75
2022/01/03 04:56:15;;;;;;;4.00;3.17;;;;;;;-1.99;77.28;100217.42;1695639;84;20930;-75
2022/01/03 04:58:42;;;;;;;5.97;4.08;;;;;;;-1.97;77.32;100202.84;1695701;84;20955;-75
2022/01/03 05:01:09;;;;;;;6.85;4.30;;;;;;;-1.97;77.38;100202.39;1695725;83;20942;-75
2022/01/03 05:03:36;;;;;;;6.55;4.75;;;;;;;-1.95;77.44;100192.10;1695796;84;20872;-76
2022/01/03 05:06:03;;;;;;;8.63;4.37;;;;;;;-1.94;77.51;100180.94;1695785;84;21759;-75
2022/01/03 05:08:31;;;;;;;5.62;3.37;;;;;;;-1.93;77.57;100164.22;1695484;84;21547;-74
2022/01/03 05:11:01;;;;;;;4.67;3.40;;;;;;;-1.90;77.69;100167.17;1695729;84;21590;-75
2022/01/03 05:13:29;;;;;;;5.92;3.90;;;;;;;-1.86;77.71;100173.13;1695630;84;20950;-74
2022/01/03 05:15:58;;;;;;;3.20;2.87;;;;;;;-1.81;77.64;100153.33;1695642;84;21036;-74
2022/01/03 05:18:25;;;;;;;4.90;3.42;;;;;;;-1.78;77.78;100162.26;1695716;84;21749;-73
2022/01/03 05:20:51;;;;;;;5.80;3.70;;;;;;;-1.72;77.68;100130.88;1695612;83;20982;-75
2022/01/03 05:23:19;;;;;;;7.65;3.80;;;;;;;-1.69;77.88;100156.95;1695711;84;20907;-74
2022/01/03 05:25:47;;;;;;;7.62;4.45;;;;;;;-1.65;77.92;100156.03;1695637;83;20923;-74
2022/01/03 05:28:14;;;;;;;5.35;3.67;;;;;;;-1.60;77.92;100157.23;1695888;84;20990;-74
2022/01/03 05:30:41;;;;;;;5.47;4.20;;;;;;;-1.57;78.03;100144.34;1695994;84;21584;-75
2022/01/03 05:33:09;;;;;;;6.05;3.62;;;;;;;-1.52;78.17;100138.67;1695601;84;20884;-74
2022/01/03 05:35:36;;;;;;;5.47;3.58;;;;;;;-1.50;78.47;100136.48;1695636;84;20868;-74
2022/01/03 05:38:04;;;;;;;7.37;4.03;;;;;;;-1.47;78.55;100139.02;1695655;83;20946;-74
2022/01/03 05:40:31;;;;;;;5.65;3.60;;;;;;;-1.44;78.67;100122.67;1695727;84;21488;-74
2022/01/03 05:42:58;;;;;;;5.53;4.12;;;;;;;-1.44;78.81;100116.69;1695654;84;21163;-75
2022/01/03 05:45:26;;;;;;;4.92;4.25;;;;;;;-1.46;79.04;100109.00;1695757;84;20907;-74
2022/01/03 05:47:55;;;;;;;7.53;6.08;;;;;;;-1.46;79.36;100110.28;1691977;84;21359;-74
2022/01/03 05:50:24;;;;;;;6.22;4.58;;;;;;;-1.43;79.54;100135.09;1752973;81;20968;-73
2022/01/03 05:52:52;;;;;;;6.78;4.35;;;;;;;-1.41;79.62;100100.75;1752980;81;20983;-74
2022/01/03 05:55:20;;;;;;;6.33;4.85;;;;;;;-1.38;79.79;100109.71;1753155;81;21109;-73
2022/01/03 05:57:47;;;;;;;6.03;4.75;;;;;;;-1.35;79.93;100109.64;1753430;81;20916;-74
2022/01/03 06:00:18;;;;;;;8.03;4.87;;;;;;;-1.32;79.94;100101.84;1752254;81;20932;-74
2022/01/03 06:02:45;;;;;;;5.37;4.20;;;;;;;-1.29;80.06;100105.67;1752532;81;20849;-76
2022/01/03 06:05:39;;;;;;;10.13;6.30;;;;;;;-1.24;80.12;100097.86;1752551;81;21480;-76
2022/01/03 06:07:48;;;;;;;12.20;7.65;;;;;;;-1.20;80.11;100087.05;1749795;82;21173;-75
2022/01/03 06:10:18;;;;;;;7.83;5.12;;;;;;;-1.17;80.27;100076.27;1751940;81;20924;-74
2022/01/03 06:12:48;;;;;;;5.08;4.47;;;;;;;-1.13;80.30;100060.34;1752852;81;20877;-73
2022/01/03 06:15:16;;;;;;;6.53;4.75;;;;;;;-1.11;80.44;100055.56;1752940;81;21465;-74
2022/01/03 06:17:44;;;;;;;7.10;5.35;;;;;;;-1.07;80.53;100044.75;1752854;82;20916;-73
2022/01/03 06:20:12;;;;;;;9.90;6.22;;;;;;;-1.04;80.78;100040.84;1733743;80;21603;-75
2022/01/03 06:22:40;;;;;;;4.87;4.25;;;;;;;-0.99;80.94;100027.42;1752577;81;21006;-74
2022/01/03 06:25:09;;;;;;;5.75;4.80;;;;;;;-0.95;81.02;100021.78;1753918;80;20892;-76
2022/01/03 06:27:38;;;;;;;7.00;4.45;;;;;;;-0.91;81.10;100014.37;1753662;81;20892;-76
2022/01/03 06:30:07;;;;;;;5.17;4.65;;;;;;;-0.85;81.06;100004.78;1752637;81;21346;-74
2022/01/03 06:32:37;;;;;;;8.48;5.30;;;;;;;-0.79;81.01;99994.80;1752697;81;20916;-75
2022/01/03 06:35:06;;;;;;;4.90;4.15;;;;;;;-0.74;81.00;99994.23;1752548;81;20940;-73
2022/01/03 06:37:33;;;;;;;7.85;5.58;;;;;;;-0.69;81.19;99997.57;1752846;81;20916;-75
2022/01/03 06:40:03;;;;;;;5.55;4.22;;;;;;;-0.61;81.24;99991.38;1749841;81;20992;-73
2022/01/03 06:42:30;;;;;;;7.20;4.45;;;;;;;-0.55;81.61;99980.49;1752469;81;20956;-74
2022/01/03 06:44:57;;;;;;;5.08;4.67;;;;;;;-0.47;81.58;99994.45;1752617;81;21205;-74
2022/01/03 06:47:25;;;;;;;4.78;4.37;;;;;;;-0.39;81.29;99981.40;1751319;80;20881;-74
2022/01/03 06:49:52;;;;;;;5.53;3.83;;;;;;;-0.35;81.08;99972.72;1744432;81;20924;-74
2022/01/03 06:52:19;;;;;;;5.78;4.12;;;;;;;-0.32;80.98;99967.47;1744515;82;20905;-74
2022/01/03 06:54:46;;;;;;;7.42;4.55;;;;;;;-0.29;80.91;99947.64;1744487;81;20960;-74
2022/01/03 06:57:13;;;;;;;5.40;4.22;;;;;;;-0.27;80.86;99951.44;1744500;81;21127;-74
2022/01/03 06:59:40;;;;;;;9.40;6.12;;;;;;;-0.25;80.95;99960.81;1744459;81;20971;-75
2022/01/03 07:02:07;;;;;;;8.70;6.28;;;;;;;-0.23;81.06;99929.87;1744504;81;20889;-74
2022/01/03 07:04:34;;;;;;;6.78;4.92;;;;;;;-0.20;81.12;99925.94;1744759;81;20925;-73
2022/01/03 07:07:01;;;;;;;5.42;4.05;;;;;;;-0.16;81.12;99914.64;1744529;81;21330;-74
2022/01/03 07:09:28;;;;;;;5.42;4.60;;;;;;;-0.14;81.07;99920.59;1744583;81;21149;-75
2022/01/03 07:11:55;;;;;;;5.87;3.67;;;;;;;-0.11;81.02;99925.69;1744326;81;20865;-75
2022/01/03 07:19:54;;;;;;;5.62;3.80;;;;;;;-0.02;81.03;99908.67;1744862;81;21398;-75
2022/01/03 07:22:22;;;;;;;5.15;4.12;;;;;;;0.02;81.05;99892.66;1744492;81;21571;-74
2022/01/03 07:24:51;;;;;;;6.15;4.20;;;;;;;0.05;81.10;99871.97;1744550;81;20869;-75
2022/01/03 07:27:20;;;;;;;4.20;3.52;;;;;;;0.04;81.13;99865.11;1744553;81;20886;-74
2022/01/03 07:29:48;;;;;;;7.00;5.17;;;;;;;0.06;81.42;99838.02;1744493;81;20944;-73
2022/01/03 07:32:15;;;;;;;6.03;3.98;;;;;;;0.08;81.63;99840.10;1744548;81;20874;-75
2022/01/03 07:34:42;;;;;;;4.45;3.20;;;;;;;0.10;81.81;99836.59;1744801;81;21732;-76
2022/01/03 07:37:09;;;;;;;5.15;3.05;;;;;;;0.13;82.16;99835.19;1744247;82;20909;-76
2022/01/03 07:39:36;;;;;;;4.33;3.40;;;;;;;0.19;82.31;99840.63;1744824;81;20968;-74
2022/01/03 07:42:04;;;;;;;4.80;3.42;;;;;;;0.24;82.64;99815.99;1745045;81;20941;-76
2022/01/03 07:44:44;;;;;;;6.67;4.40;;;;;;;0.28;82.87;99817.59;1744695;81;20971;-77
2022/01/03 07:47:11;;;;;;;7.00;3.02;;;;;;;0.32;83.15;99809.71;1744832;81;21149;-76
2022/01/03 07:49:38;;;;;;;5.55;3.22;;;;;;;0.34;83.23;99800.19;1744379;81;20983;-75
2022/01/03 07:52:09;;;;;;;5.15;3.62;;;;;;;0.39;83.36;99788.44;1744410;81;20949;-75
2022/01/03 07:54:38;;;;;;;7.28;3.65;;;;;;;0.39;83.56;99768.64;1744421;81;20929;-76
2022/01/03 07:57:05;;;;;;;4.62;3.25;;;;;;;0.44;83.85;99761.21;1744397;81;20945;-73
2022/01/03 07:59:32;;;;;;;3.75;2.83;;;;;;;0.47;84.17;99771.00;1744673;81;21072;-74
2022/01/03 08:01:59;;;;;;;4.17;3.60;;;;;;;0.52;84.41;99765.69;1744118;81;20913;-75
2022/01/03 08:04:26;;;;;;;4.45;3.52;;;;;;;0.56;84.69;99766.82;1744750;81;20916;-74
2022/01/03 08:06:53;;;;;;;5.87;3.90;;;;;;;0.60;84.73;99756.80;1744400;82;21444;-75
2022/01/03 08:09:21;;;;;;;5.62;3.83;;;;;;;0.65;84.97;99768.72;1744577;81;20984;-74
2022/01/03 08:11:50;;;;;;;5.42;3.33;;;;;;;0.69;85.08;99745.34;1744333;81;21155;-76
2022/01/03 08:14:17;;;;;;;8.00;4.62;;;;;;;0.74;85.21;99749.89;1744624;81;20933;-74
2022/01/03 08:16:45;;;;;;;5.22;4.45;;;;;;;0.78;85.49;99733.87;1744404;82;20893;-75
2022/01/03 08:19:12;;;;;;;5.80;4.60;;;;;;;0.81;85.68;99735.88;1744236;81;20992;-74
2022/01/03 08:21:40;;;;;;;5.65;3.72;;;;;;;0.84;85.81;99745.25;1744341;81;20886;-78
2022/01/03 08:24:07;;;;;;;3.80;3.17;;;;;;;0.88;86.02;99759.73;1744831;81;22042;-74
2022/01/03 08:26:35;;;;;;;4.65;3.92;;;;;;;0.90;86.16;99742.92;1744338;81;20862;-73
2022/01/03 08:29:05;;;;;;;4.87;3.75;;;;;;;0.93;86.28;99735.05;1744472;81;20999;-74
2022/01/03 08:31:32;;;;;;;5.25;3.95;;;;;;;0.97;86.33;99725.02;1744354;81;20987;-75
2022/01/03 08:33:59;;;;;;;4.62;3.83;;;;;;;1.00;86.60;99724.91;1744717;81;20881;-74
2022/01/03 08:36:26;;;;;;;8.03;4.40;;;;;;;1.04;86.92;99723.91;1744468;81;21129;-75
2022/01/03 08:38:54;;;;;;;5.67;3.83;;;;;;;1.10;87.32;99715.95;1744486;81;20932;-76
2022/01/03 08:41:21;;;;;;;5.67;4.37;;;;;;;1.16;87.46;99695.53;1744483;81;21019;-75
2022/01/03 08:43:48;;;;;;;5.87;3.98;;;;;;;1.21;87.46;99689.75;1744581;81;20987;-76
2022/01/03 08:46:14;;;;;;;5.12;4.30;;;;;;;1.26;87.57;99674.08;1744504;81;21446;-74
2022/01/03 08:48:41;;;;;;;10.20;5.87;;;;;;;1.30;87.47;99676.49;1749605;80;21138;-75
2022/01/03 08:51:08;;;;;;;7.95;4.45;;;;;;;1.34;87.56;99687.56;1757681;81;20841;-75
2022/01/03 08:53:35;;;;;;;8.80;4.92;;;;;;;1.37;87.67;99671.48;1757729;81;20897;-75
2022/01/03 08:56:02;;;;;;;7.42;5.03;;;;;;;1.42;87.72;99657.09;1757751;81;20902;-74
2022/01/03 08:58:29;;;;;;;9.55;4.78;;;;;;;1.44;87.73;99669.51;1757840;81;20861;-74
2022/01/03 09:00:56;;;;;;;10.10;5.03;;;;;;;1.47;87.93;99677.59;1757622;81;21309;-76
2022/01/03 09:03:23;;;;;;;9.60;5.05;;;;;;;1.51;87.98;99664.95;1757965;81;20936;-74
2022/01/03 09:05:53;;;;;;;7.95;4.33;;;;;;;1.55;88.16;99686.73;1759418;81;20964;-76
2022/01/03 09:08:22;;;;;;;8.18;4.70;;;;;;;1.59;88.04;99676.68;1758321;81;21023;-77
2022/01/03 09:10:50;;;;;;;6.53;4.92;;;;;;;1.65;87.95;99659.66;1757875;80;21405;-75
2022/01/03 09:13:18;;;;;;;5.97;4.95;;;;;;;1.68;87.93;99661.27;1757720;81;20912;-75
2022/01/03 09:15:46;;;;;;;7.95;5.10;;;;;;;1.72;87.88;99648.63;1757620;81;20975;-75
2022/01/03 09:18:18;;;;;;;8.08;4.65;;;;;;;1.75;87.94;99636.03;1757881;80;20928;-75
2022/01/03 09:20:45;;;;;;;6.90;4.80;;;;;;;1.78;88.01;99634.60;1758062;80;20896;-76
2022/01/03 09:23:24;;;;;;;8.88;5.53;;;;;;;1.81;88.08;99637.92;1757725;81;20920;-76
2022/01/03 09:31:19;;;;;;;10.03;5.45;;;;;;;1.92;88.25;99623.27;1758038;81;21485;-82
2022/01/03 09:33:46;;;;;;;7.42;4.83;;;;;;;1.95;88.20;99631.35;1757918;81;20889;-82
2022/01/03 09:36:13;;;;;;;10.50;6.08;;;;;;;1.97;88.21;99607.12;1758419;81;20936;-83
2022/01/03 09:38:40;;;;;;;6.72;4.97;;;;;;;1.98;88.30;99611.40;1757777;80;21152;-81
2022/01/03 09:41:08;;;;;;;8.68;6.42;;;;;;;2.01;88.43;99608.67;1757968;81;20936;-82
2022/01/03 09:43:50;;;;;;;6.78;4.83;;;;;;;2.03;88.46;99602.16;1757980;81;21411;-81
2022/01/03 09:46:24;;;;;;;10.25;6.60;;;;;;;2.06;88.56;99591.67;1754604;81;21456;-83
2022/01/03 09:48:53;;;;;;;7.08;5.35;;;;;;;2.09;88.55;99592.86;1757676;80;20893;-82
2022/01/03 09:51:25;;;;;;;9.23;5.42;;;;;;;2.13;88.61;99597.44;1758086;80;21920;-83
2022/01/03 09:53:53;;;;;;;9.25;5.10;;;;;;;2.14;88.65;99591.38;1757973;81;20959;-85
2022/01/03 09:56:20;;;;;;;6.03;5.35;;;;;;;2.21;88.66;99577.27;1758188;81;20939;-86
2022/01/03 09:58:46;;;;;;;9.90;6.20;;;;;;;2.24;88.57;99574.08;1757989;81;20902;-84
2022/01/03 10:01:15;;;;;;;7.97;6.00;;;;;;;2.27;88.54;99583.48;1757956;81;20923;-76
2022/01/03 10:03:47;;;;;;;9.35;5.85;;;;;;;2.30;88.54;99582.51;1757933;81;21156;-77
2022/01/03 10:06:11;;;;;;;6.78;5.37;;;;;;;2.32;88.58;99576.82;1757707;81;20983;-77
2022/01/03 10:08:38;;;;;;;6.03;4.42;;;;;;;2.31;88.53;99563.02;1757858;81;20888;-77
2022/01/03 10:11:05;;;;;;;9.60;5.35;;;;;;;2.31;88.58;99563.02;1758172;81;20948;-79
2022/01/03 10:13:32;;;;;;;4.87;3.70;;;;;;;2.33;88.59;99562.96;1757812;81;20967;-77
2022/01/03 10:15:59;;;;;;;5.15;3.27;;;;;;;2.33;88.42;99546.98;1758314;81;21103;-80
2022/01/03 10:18:31;;;;;;;4.97;3.42;;;;;;;2.35;88.49;99542.58;1758865;81;20940;-77
2022/01/03 10:20:55;;;;;;;5.72;4.00;;;;;;;2.38;88.50;99530.83;1759990;81;20924;-78
2022/01/03 10:23:22;;;;;;;3.85;3.33;;;;;;;2.41;88.38;99531.98;1758922;80;20916;-79
2022/01/03 10:25:50;;;;;;;6.90;4.00;;;;;;;2.42;88.22;99516.85;1758262;81;21607;-79
2022/01/03 10:28:28;;;;;;;4.83;3.40;;;;;;;2.44;88.16;99512.88;1757782;81;21092;-79
2022/01/03 10:30:55;;;;;;;6.10;4.25;;;;;;;2.47;88.08;99504.55;1759702;81;21413;-77
2022/01/03 10:33:23;;;;;;;6.28;4.87;;;;;;;2.51;88.00;99512.16;1758468;81;20932;-81
2022/01/03 10:35:56;;;;;;;5.65;4.12;;;;;;;2.55;87.94;99507.23;1758559;81;21022;-79
2022/01/03 10:38:44;;;;;;;8.10;5.47;;;;;;;2.59;87.84;99497.13;1758418;80;20987;-78
2022/01/03 10:41:17;;;;;;;3.02;2.47;;;;;;;2.62;87.72;99504.32;1758262;80;21173;-81
2022/01/03 10:43:50;;;;;;;4.92;3.30;;;;;;;2.66;87.63;99497.23;1758025;81;21409;-80
2022/01/03 10:46:28;;;;;;;4.37;3.98;;;;;;;2.67;87.61;99489.41;1757938;81;20924;-80
2022/01/03 10:49:13;;;;;;;4.40;3.62;;;;;;;2.72;87.52;99496.13;1754900;81;20944;-79
2022/01/03 10:51:40;;;;;;;8.60;4.60;;;;;;;2.75;87.46;99490.80;1735459;81;20957;-80
2022/01/03 10:54:11;;;;;;;6.37;3.95;;;;;;;2.77;87.32;99486.39;1744683;81;21024;-78
2022/01/03 10:56:42;;;;;;;6.55;5.00;;;;;;;2.80;87.34;99465.09;1744380;81;21355;-80
2022/01/03 10:59:25;;;;;;;5.40;3.80;;;;;;;2.82;87.39;99465.84;1744507;81;20936;-81
2022/01/03 11:02:10;;;;;;;4.58;3.75;;;;;;;2.84;87.39;99467.06;1744334;81;21474;-80
2022/01/03 11:04:52;;;;;;;8.90;6.75;;;;;;;2.84;87.30;99459.30;1744961;81;20886;-81
2022/01/03 11:13:19;;;;;;;7.08;5.62;;;;;;;2.84;87.44;99456.25;1744546;81;21004;-81
2022/01/03 11:15:53;;;;;;;11.40;6.10;;;;;;;2.86;87.53;99454.43;1744411;81;21422;-78
2022/01/03 11:18:29;;;;;;;7.80;6.10;;;;;;;2.88;87.50;99455.20;1744669;81;20983;-79
2022/01/03 11:21:16;;;;;;;6.67;5.75;;;;;;;2.94;87.51;99450.66;1744286;81;21831;-79
2022/01/03 11:23:51;;;;;;;5.92;4.30;;;;;;;2.96;87.34;99444.50;1744470;81;20877;-78
2022/01/03 11:26:20;;;;;;;8.50;5.65;;;;;;;2.99;87.22;99444.80;1744510;81;21482;-79
2022/01/03 11:28:47;;;;;;;5.20;3.98;;;;;;;3.01;87.06;99440.39;1744796;82;21339;-79
2022/01/03 11:31:17;;;;;;;5.35;4.67;;;;;;;3.01;86.86;99439.09;1744631;82;20881;-79
2022/01/03 11:33:46;;;;;;;4.53;3.95;;;;;;;3.03;86.73;99424.33;1734499;82;21816;-79
2022/01/03 11:36:13;;;;;;;5.10;4.60;;;;;;;3.05;86.71;99426.39;1734027;82;21000;-78
2022/01/03 11:38:40;;;;;;;6.97;5.33;;;;;;;3.08;86.62;99414.11;1744372;81;21386;-75
2022/01/03 11:41:09;;;;;;;6.10;5.15;;;;;;;3.15;86.58;99403.45;1744408;81;20889;-79
2022/01/03 11:43:38;;;;;;;4.80;3.80;;;;;;;3.23;86.43;99396.16;1745186;82;20861;-76
2022/01/03 11:46:07;;;;;;;6.20;4.90;;;;;;;3.30;86.33;99397.05;1744391;81;21137;-80
2022/01/03 11:48:35;;;;;;;5.58;4.55;;;;;;;3.37;86.05;99407.95;1744370;81;20881;-85
2022/01/03 11:51:11;;;;;;;7.25;5.28;;;;;;;3.45;85.91;99398.05;1757481;81;20983;-82
2022/01/03 11:53:47;;;;;;;12.90;7.20;;;;;;;3.50;85.69;99396.05;1741133;81;20948;-79
2022/01/03 11:56:18;;;;;;;9.98;6.83;;;;;;;3.55;85.42;99367.31;1758761;81;20884;-77
2022/01/03 11:58:56;;;;;;;7.25;5.55;;;;;;;3.58;85.16;99377.54;1759399;81;21562;-77
2022/01/03 12:04:14;;;;;;;7.37;6.12;;;;;;;3.61;84.70;99381.72;1758575;81;21073;-77
2022/01/03 12:06:43;;;;;;;9.90;5.92;;;;;;;3.62;84.63;99371.72;1757886;80;20908;-76